Etusivu
METAR-TAF:

METAR-TAF

Lentoasemat :

Ambato, Ecuador

Leveyspiiri: 01-12-43S, Pituuspiiri: 078-34-28W, korkeus merenpinnasta: 2591 m

Tämänhetkinen sää

Tämä raportti tehtiin 51 minuuttia sitten, kello 12.00 UTC
tyyntä
Lämpötila 13°C
Kosteus 100%
Ilmanpaine 1030 hPa
Näkyvyys: 6000 m
Hajanaisia pilviä 600 ft:n korkeudessa
Pilvistä 1500 ft:n korkeudessa
heikkoa tihkusadetta

METAR: SEAM 021200Z 00000KT 6000 -DZ SCT006 OVC015 13/13 Q1030

Aika: 07:51 (12:51 UTC)


TAF: puuttuu

Säähavainnot ja -ennusteet yli 4000 lentoasemalta (METAR- ja TAF-raportit).

Käytössä olevat sääasemat on merkitty karttaan keltaisilla ja punaisilla pisteillä.

Aseta hiiri pisteen päälle nähdäksesi sääaseman nimen.

Klikkaa sitten nähdäksesi säähavainnot ja -ennusteet.

Kartan vaihtaminen: klikkaa mustalla rastilla varustettuja vihreitä pisteitä, niin voit zoomata sisään; viivalla varustettua vihreää pistettä, niin voit zoomata ulos tai vihreitä nuolia, niin pääset viereisille kartoille.


METAR-TAF: